Time;durP1;ratioP1;P1;durP2;ratioP2;P2;SDS_P1;SDS_P2;PMS_P1;PMS_P2;Temp;Humidity;BMP_temperature;BMP_pressure;BME280_temperature;BME280_humidity;BME280_pressure;Samples;Min_cycle;Max_cycle;Signal;HPM_P1;HPM_P2
2023/10/31 00:00:50;;;;;;;33.03;27.80;;;;;;;;;;5072389;28;20028;-51
2023/10/31 00:03:16;;;;;;;33.05;26.52;;;;;;;;;;5054186;28;20021;-50
2023/10/31 00:05:43;;;;;;;32.08;27.23;;;;;;;;;;5072153;28;20394;-56
2023/10/31 00:08:09;;;;;;;31.73;26.58;;;;;;;;;;5072451;28;20547;-56
2023/10/31 00:10:35;;;;;;;29.77;25.23;;;;;;;;;;5072595;28;20577;-55
2023/10/31 00:13:01;;;;;;;30.33;25.88;;;;;;;;;;5072691;28;20108;-56
2023/10/31 00:15:29;;;;;;;31.08;25.90;;;;;;;;;;5072811;28;20085;-53
2023/10/31 00:17:55;;;;;;;29.73;25.38;;;;;;;;;;5054923;28;20025;-52
2023/10/31 00:20:21;;;;;;;27.73;24.73;;;;;;;;;;5072285;28;20060;-54
2023/10/31 00:22:47;;;;;;;27.38;24.45;;;;;;;;;;5072568;28;20057;-52
2023/10/31 00:25:13;;;;;;;28.15;24.35;;;;;;;;;;5054572;28;20399;-52
2023/10/31 00:27:39;;;;;;;26.35;23.17;;;;;;;;;;5054471;28;20020;-53
2023/10/31 00:30:05;;;;;;;27.27;22.88;;;;;;;;;;5072031;28;20051;-52
2023/10/31 00:32:31;;;;;;;24.73;22.02;;;;;;;;;;5072470;28;20023;-56
2023/10/31 00:34:57;;;;;;;24.08;21.52;;;;;;;;;;5054386;28;20425;-54
2023/10/31 00:37:23;;;;;;;25.25;22.55;;;;;;;;;;5054338;28;20086;-53
2023/10/31 00:39:49;;;;;;;26.17;23.38;;;;;;;;;;5072000;28;20078;-54
2023/10/31 00:42:15;;;;;;;26.05;22.73;;;;;;;;;;5063957;28;20431;-54
2023/10/31 00:44:41;;;;;;;26.58;23.23;;;;;;;;;;5072426;28;20031;-50
2023/10/31 00:47:07;;;;;;;25.35;22.75;;;;;;;;;;5072089;28;20043;-54
2023/10/31 00:49:33;;;;;;;26.95;24.00;;;;;;;;;;5053990;28;20031;-51
2023/10/31 00:51:59;;;;;;;25.67;22.92;;;;;;;;;;5072419;28;20024;-53
2023/10/31 00:54:25;;;;;;;28.35;23.17;;;;;;;;;;5054342;28;20016;-54
2023/10/31 00:56:51;;;;;;;26.35;23.55;;;;;;;;;;5072616;28;20604;-54
2023/10/31 00:59:17;;;;;;;25.95;23.15;;;;;;;;;;5063802;28;20489;-52
2023/10/31 01:01:43;;;;;;;25.73;23.13;;;;;;;;;;5072321;28;20044;-53
2023/10/31 01:04:09;;;;;;;26.40;23.52;;;;;;;;;;5053823;28;20050;-52
2023/10/31 01:06:41;;;;;;;27.67;25.02;;;;;;;;;;5072005;28;20520;-53
2023/10/31 01:09:07;;;;;;;27.20;24.45;;;;;;;;;;5071792;28;20028;-52
2023/10/31 01:11:33;;;;;;;27.10;24.33;;;;;;;;;;5072188;28;20173;-53
2023/10/31 01:13:59;;;;;;;27.23;24.52;;;;;;;;;;5072173;28;20059;-50
2023/10/31 01:16:25;;;;;;;28.42;25.50;;;;;;;;;;5072039;28;20020;-55
2023/10/31 01:18:51;;;;;;;28.00;25.05;;;;;;;;;;5071811;28;20044;-50
2023/10/31 01:21:17;;;;;;;29.63;26.65;;;;;;;;;;5071505;28;20043;-54
2023/10/31 01:23:43;;;;;;;27.95;25.13;;;;;;;;;;5071959;28;20149;-53
2023/10/31 01:26:09;;;;;;;27.30;24.50;;;;;;;;;;5071745;28;20046;-51
2023/10/31 01:28:35;;;;;;;27.00;24.30;;;;;;;;;;5071565;28;20017;-49
2023/10/31 01:31:01;;;;;;;26.10;23.55;;;;;;;;;;5071777;28;20597;-52
2023/10/31 01:33:27;;;;;;;25.05;22.55;;;;;;;;;;5068240;28;20098;-56
2023/10/31 01:35:53;;;;;;;24.13;21.77;;;;;;;;;;5048581;28;20516;-55
2023/10/31 01:38:19;;;;;;;23.95;21.45;;;;;;;;;;5071104;28;20024;-54
2023/10/31 01:40:49;;;;;;;22.20;20.10;;;;;;;;;;5053090;28;20509;-53
2023/10/31 01:43:29;;;;;;;22.38;19.98;;;;;;;;;;5053274;28;20021;-53
2023/10/31 01:45:55;;;;;;;21.10;19.00;;;;;;;;;;5051452;28;20029;-53
2023/10/31 01:48:23;;;;;;;20.40;18.30;;;;;;;;;;5050829;28;20502;-53
2023/10/31 01:50:49;;;;;;;20.55;18.45;;;;;;;;;;5050758;28;20035;-50
2023/10/31 01:53:15;;;;;;;20.92;17.92;;;;;;;;;;5051105;28;20033;-55
2023/10/31 01:55:41;;;;;;;18.92;17.00;;;;;;;;;;5051192;28;20031;-51
2023/10/31 01:58:07;;;;;;;18.98;17.00;;;;;;;;;;5051098;28;20021;-52
2023/10/31 02:00:33;;;;;;;18.40;16.40;;;;;;;;;;5050794;28;20028;-50
2023/10/31 02:02:59;;;;;;;17.80;15.98;;;;;;;;;;5050978;28;20518;-51
2023/10/31 02:05:28;;;;;;;17.88;16.08;;;;;;;;;;5050703;28;20471;-50
2023/10/31 02:07:54;;;;;;;;;;;;;;;;;;5050997;28;20021;-56
2023/10/31 02:10:20;;;;;;;17.98;16.08;;;;;;;;;;5050266;28;19916;-53
2023/10/31 02:12:46;;;;;;;18.15;16.25;;;;;;;;;;5032495;28;20025;-56
2023/10/31 02:15:12;;;;;;;18.02;16.17;;;;;;;;;;5041338;28;20087;-53
2023/10/31 02:17:38;;;;;;;17.52;15.73;;;;;;;;;;5070439;28;20390;-53
2023/10/31 02:20:04;;;;;;;17.48;15.68;;;;;;;;;;5070078;28;20107;-54
2023/10/31 02:22:30;;;;;;;17.45;15.65;;;;;;;;;;5070385;28;20028;-54
2023/10/31 02:24:56;;;;;;;16.90;15.10;;;;;;;;;;5070400;28;20502;-52
2023/10/31 02:27:22;;;;;;;16.90;15.10;;;;;;;;;;5059760;28;20128;-55
2023/10/31 02:29:48;;;;;;;17.35;15.55;;;;;;;;;;5049963;28;20021;-55
2023/10/31 02:32:14;;;;;;;17.27;15.48;;;;;;;;;;5032238;28;20486;-54
2023/10/31 02:34:40;;;;;;;17.60;15.80;;;;;;;;;;5050052;28;20355;-53
2023/10/31 02:37:06;;;;;;;16.65;14.85;;;;;;;;;;5050133;28;20124;-55
2023/10/31 02:39:32;;;;;;;17.08;15.27;;;;;;;;;;5031807;28;20032;-52
2023/10/31 02:41:58;;;;;;;17.45;15.55;;;;;;;;;;5050166;28;20091;-53
2023/10/31 02:44:24;;;;;;;17.73;15.70;;;;;;;;;;5032313;28;20071;-50
2023/10/31 02:46:50;;;;;;;19.05;15.40;;;;;;;;;;5050200;28;20489;-51
2023/10/31 02:49:16;;;;;;;17.02;15.23;;;;;;;;;;5040274;28;20063;-50
2023/10/31 02:51:42;;;;;;;17.00;15.25;;;;;;;;;;5050893;28;20115;-52
2023/10/31 02:54:08;;;;;;;17.58;15.68;;;;;;;;;;5050347;28;20036;-53
2023/10/31 02:56:34;;;;;;;17.45;15.45;;;;;;;;;;5050211;28;20493;-52
2023/10/31 02:59:00;;;;;;;17.65;14.85;;;;;;;;;;5066290;28;20054;-48
2023/10/31 03:01:29;;;;;;;16.90;14.75;;;;;;;;;;5069606;28;20024;-54
2023/10/31 03:03:55;;;;;;;17.00;15.13;;;;;;;;;;5069833;28;20028;-52
2023/10/31 03:06:21;;;;;;;17.20;15.40;;;;;;;;;;5069453;28;20512;-52
2023/10/31 03:08:47;;;;;;;18.63;14.48;;;;;;;;;;5063690;28;20032;-52
2023/10/31 03:11:26;;;;;;;16.23;13.90;;;;;;;;;;5049456;28;20013;-53
2023/10/31 03:13:53;;;;;;;16.65;13.82;;;;;;;;;;5049864;28;20024;-54
2023/10/31 03:16:19;;;;;;;16.10;12.85;;;;;;;;;;5031942;28;20028;-50
2023/10/31 03:18:46;;;;;;;17.33;11.50;;;;;;;;;;5049681;28;20045;-51
2023/10/31 03:21:13;;;;;;;15.52;10.82;;;;;;;;;;5049724;28;20017;-54
2023/10/31 03:23:39;;;;;;;15.38;10.20;;;;;;;;;;5031971;28;20017;-61
2023/10/31 03:26:05;;;;;;;15.00;9.50;;;;;;;;;;5051104;28;20048;-54
2023/10/31 03:28:31;;;;;;;15.95;9.35;;;;;;;;;;5053805;28;20025;-49
2023/10/31 03:30:57;;;;;;;14.90;9.23;;;;;;;;;;5053556;28;20062;-56
2023/10/31 03:33:23;;;;;;;16.65;9.40;;;;;;;;;;5035551;28;20029;-55
2023/10/31 03:35:50;;;;;;;17.98;9.50;;;;;;;;;;5053585;28;20025;-54
2023/10/31 03:38:16;;;;;;;18.63;9.40;;;;;;;;;;5053524;28;20025;-51
2023/10/31 03:40:42;;;;;;;19.35;9.38;;;;;;;;;;5053405;28;20029;-55
2023/10/31 03:43:08;;;;;;;20.17;10.35;;;;;;;;;;5053513;28;20088;-53
2023/10/31 03:45:34;;;;;;;18.17;10.13;;;;;;;;;;5035664;28;20079;-54
2023/10/31 03:48:00;;;;;;;18.20;10.10;;;;;;;;;;5053454;28;20035;-54
2023/10/31 03:50:26;;;;;;;20.70;10.02;;;;;;;;;;5053074;28;20066;-53
2023/10/31 03:52:52;;;;;;;16.55;10.15;;;;;;;;;;5053090;28;20021;-53
2023/10/31 03:55:18;;;;;;;19.08;10.85;;;;;;;;;;5053184;28;20395;-53
2023/10/31 03:57:44;;;;;;;20.65;10.30;;;;;;;;;;5053169;28;20028;-52
2023/10/31 04:00:11;;;;;;;19.30;10.32;;;;;;;;;;5052925;28;20017;-53
2023/10/31 04:02:37;;;;;;;17.67;10.63;;;;;;;;;;5053119;28;20025;-55
2023/10/31 04:05:03;;;;;;;22.00;10.82;;;;;;;;;;5053145;28;20052;-56
2023/10/31 04:07:29;;;;;;;18.38;10.85;;;;;;;;;;5072735;28;20028;-53
2023/10/31 04:09:56;;;;;;;19.17;10.85;;;;;;;;;;5072464;28;20024;-55
2023/10/31 04:12:22;;;;;;;19.38;11.88;;;;;;;;;;5072792;28;20020;-54
2023/10/31 04:14:48;;;;;;;19.00;11.38;;;;;;;;;;5072935;28;20024;-55
2023/10/31 04:17:14;;;;;;;20.20;11.88;;;;;;;;;;5054599;28;20025;-55
2023/10/31 04:19:40;;;;;;;19.80;12.63;;;;;;;;;;5059334;28;20025;-53
2023/10/31 04:22:06;;;;;;;18.65;10.35;;;;;;;;;;5034599;28;20029;-55
2023/10/31 04:24:32;;;;;;;21.52;12.93;;;;;;;;;;5052514;28;20025;-52
2023/10/31 04:26:58;;;;;;;20.30;11.90;;;;;;;;;;5052583;28;20402;-53
2023/10/31 04:29:24;;;;;;;21.13;12.85;;;;;;;;;;5054693;28;20028;-56
2023/10/31 04:31:50;;;;;;;21.67;12.52;;;;;;;;;;5072258;28;20429;-56
2023/10/31 04:34:16;;;;;;;20.50;11.70;;;;;;;;;;5054126;28;20020;-54
2023/10/31 04:36:42;;;;;;;20.13;12.88;;;;;;;;;;5054209;28;20032;-56
2023/10/31 04:39:08;;;;;;;24.65;13.55;;;;;;;;;;5053514;28;20074;-54
2023/10/31 04:41:34;;;;;;;22.48;12.48;;;;;;;;;;5060683;28;20029;-53
2023/10/31 04:44:00;;;;;;;21.80;12.70;;;;;;;;;;5033389;28;20378;-53
2023/10/31 04:46:29;;;;;;;23.67;13.25;;;;;;;;;;5034335;28;20025;-51
2023/10/31 04:48:55;;;;;;;23.02;13.60;;;;;;;;;;5052078;28;20029;-53
2023/10/31 04:51:21;;;;;;;22.90;12.85;;;;;;;;;;5051953;28;20025;-51
2023/10/31 04:53:47;;;;;;;23.27;14.85;;;;;;;;;;5052014;28;20040;-52
2023/10/31 04:56:14;;;;;;;22.45;13.27;;;;;;;;;;5051946;28;20462;-56
2023/10/31 04:58:40;;;;;;;30.27;17.17;;;;;;;;;;5051994;28;20025;-53
2023/10/31 05:01:12;;;;;;;24.70;15.68;;;;;;;;;;5051732;28;20025;-49
2023/10/31 05:03:38;;;;;;;25.60;16.15;;;;;;;;;;5034007;28;20052;-50
2023/10/31 05:06:05;;;;;;;26.25;17.50;;;;;;;;;;5033977;28;20021;-55
2023/10/31 05:08:31;;;;;;;26.92;17.80;;;;;;;;;;5051654;28;20021;-56
2023/10/31 05:10:57;;;;;;;25.63;15.80;;;;;;;;;;5051506;28;20386;-56
2023/10/31 05:13:23;;;;;;;26.98;16.50;;;;;;;;;;5062521;28;20029;-53
2023/10/31 05:15:50;;;;;;;31.48;16.38;;;;;;;;;;5071721;28;20150;-54
2023/10/31 05:18:16;;;;;;;31.83;19.05;;;;;;;;;;5071367;28;20033;-50
2023/10/31 05:20:42;;;;;;;29.02;17.75;;;;;;;;;;5066108;28;20033;-52
2023/10/31 05:23:08;;;;;;;29.17;19.55;;;;;;;;;;5051512;28;20056;-52
2023/10/31 05:25:34;;;;;;;28.05;18.33;;;;;;;;;;5033748;28;20029;-53
2023/10/31 05:28:00;;;;;;;26.92;18.08;;;;;;;;;;5033364;28;20095;-55
2023/10/31 05:30:26;;;;;;;29.73;18.45;;;;;;;;;;5032952;28;20032;-52
2023/10/31 05:32:53;;;;;;;25.50;16.88;;;;;;;;;;5051164;28;20025;-54
2023/10/31 05:35:19;;;;;;;29.05;17.23;;;;;;;;;;5051307;28;20364;-54
2023/10/31 05:37:46;;;;;;;32.25;18.13;;;;;;;;;;5051387;28;20052;-53
2023/10/31 05:40:12;;;;;;;24.98;16.00;;;;;;;;;;5051160;28;20075;-55
2023/10/31 05:42:39;;;;;;;26.65;16.33;;;;;;;;;;5051447;28;20028;-55
2023/10/31 05:45:05;;;;;;;27.75;15.70;;;;;;;;;;5051448;28;20033;-55
2023/10/31 05:47:32;;;;;;;25.30;15.45;;;;;;;;;;5052986;28;20029;-52
2023/10/31 05:49:58;;;;;;;26.70;16.83;;;;;;;;;;5084644;22;20136;-62
2023/10/31 05:52:28;;;;;;;29.90;17.45;;;;;;;;;;5073291;28;20024;-62
2023/10/31 05:54:54;;;;;;;24.70;16.60;;;;;;;;;;5073638;28;20019;-62
2023/10/31 05:57:20;;;;;;;28.08;19.42;;;;;;;;;;5088564;28;20035;-63
2023/10/31 05:59:46;;;;;;;27.40;20.52;;;;;;;;;;5073530;28;20020;-62
2023/10/31 06:02:12;;;;;;;26.38;19.98;;;;;;;;;;5073367;28;20082;-62
2023/10/31 06:04:38;;;;;;;27.85;20.70;;;;;;;;;;5074150;28;20421;-62
2023/10/31 06:07:04;;;;;;;28.98;21.83;;;;;;;;;;5057031;28;20055;-62
2023/10/31 06:09:30;;;;;;;28.67;25.10;;;;;;;;;;5073273;28;20060;-62
2023/10/31 06:11:56;;;;;;;34.67;28.92;;;;;;;;;;5074076;28;20112;-62
2023/10/31 06:14:22;;;;;;;32.03;28.63;;;;;;;;;;5054986;28;20668;-61
2023/10/31 06:16:48;;;;;;;31.98;28.65;;;;;;;;;;5055182;28;20172;-60
2023/10/31 06:19:14;;;;;;;36.42;31.88;;;;;;;;;;5073300;28;20029;-62
2023/10/31 06:21:40;;;;;;;39.47;35.17;;;;;;;;;;5055963;28;20033;-63
2023/10/31 06:24:06;;;;;;;37.60;33.83;;;;;;;;;;5055875;28;20193;-59
2023/10/31 06:26:32;;;;;;;37.95;33.85;;;;;;;;;;5066211;28;20038;-62
2023/10/31 06:28:58;;;;;;;36.75;32.88;;;;;;;;;;5057208;28;20091;-62
2023/10/31 06:31:24;;;;;;;36.28;32.75;;;;;;;;;;5056476;28;20054;-62
2023/10/31 06:33:50;;;;;;;34.25;30.85;;;;;;;;;;5074502;28;20032;-61
2023/10/31 06:36:16;;;;;;;35.65;32.05;;;;;;;;;;5064841;28;20034;-62
2023/10/31 06:38:42;;;;;;;34.97;31.48;;;;;;;;;;5055677;28;20020;-57
2023/10/31 06:41:08;;;;;;;33.55;30.27;;;;;;;;;;5072324;28;20028;-60
2023/10/31 06:43:34;;;;;;;32.50;29.40;;;;;;;;;;5064904;28;20032;-63
2023/10/31 06:46:02;;;;;;;31.17;28.08;;;;;;;;;;5065598;28;20048;-63
2023/10/31 06:48:28;;;;;;;29.85;26.95;;;;;;;;;;5072787;28;20025;-63
2023/10/31 06:50:54;;;;;;;29.33;26.40;;;;;;;;;;5073192;28;20037;-63
2023/10/31 06:53:20;;;;;;;27.88;24.95;;;;;;;;;;5073355;28;20024;-65
2023/10/31 06:55:46;;;;;;;29.33;26.35;;;;;;;;;;5073783;28;20024;-64
2023/10/31 06:58:12;;;;;;;27.52;24.80;;;;;;;;;;5073748;28;20029;-61
2023/10/31 07:00:38;;;;;;;29.27;26.48;;;;;;;;;;5065281;28;20080;-64
2023/10/31 07:03:08;;;;;;;28.98;26.05;;;;;;;;;;5052710;28;20043;-62
2023/10/31 07:05:35;;;;;;;28.05;25.23;;;;;;;;;;5047629;28;20486;-63
2023/10/31 07:08:01;;;;;;;28.20;25.30;;;;;;;;;;5055551;28;20039;-62
2023/10/31 07:10:27;;;;;;;27.38;24.67;;;;;;;;;;5057528;28;20025;-61
2023/10/31 07:12:52;;;;;;;26.90;24.25;;;;;;;;;;5053423;28;20060;-63
2023/10/31 07:15:18;;;;;;;28.42;25.15;;;;;;;;;;5052964;28;20024;-63
2023/10/31 07:17:44;;;;;;;26.25;23.67;;;;;;;;;;5035370;28;20035;-61
2023/10/31 07:20:10;;;;;;;26.30;23.65;;;;;;;;;;5053565;28;20025;-63
2023/10/31 07:22:36;;;;;;;25.92;23.42;;;;;;;;;;5058374;28;20036;-63
2023/10/31 07:25:03;;;;;;;25.38;22.95;;;;;;;;;;5073499;28;20028;-64
2023/10/31 07:27:29;;;;;;;25.17;22.77;;;;;;;;;;5073727;28;20443;-62
2023/10/31 07:29:56;;;;;;;25.35;22.88;;;;;;;;;;5073162;28;20029;-63
2023/10/31 07:32:21;;;;;;;25.90;23.17;;;;;;;;;;5073858;28;20035;-63
2023/10/31 07:34:47;;;;;;;24.48;22.08;;;;;;;;;;5051701;28;20634;-63
2023/10/31 07:37:13;;;;;;;24.98;22.52;;;;;;;;;;5070945;28;20024;-63
2023/10/31 07:39:39;;;;;;;24.60;22.25;;;;;;;;;;5072410;28;20054;-60
2023/10/31 07:42:06;;;;;;;24.50;22.10;;;;;;;;;;5073322;28;20406;-62
2023/10/31 07:44:32;;;;;;;25.08;22.63;;;;;;;;;;5045647;28;20428;-62
2023/10/31 07:46:58;;;;;;;25.40;22.90;;;;;;;;;;5054917;28;20029;-62
2023/10/31 07:49:24;;;;;;;26.17;23.58;;;;;;;;;;5035424;28;20040;-63
2023/10/31 07:51:50;;;;;;;26.20;23.67;;;;;;;;;;5053972;28;20104;-66
2023/10/31 07:54:16;;;;;;;26.08;23.48;;;;;;;;;;5054843;28;20028;-62
2023/10/31 07:56:42;;;;;;;26.38;23.70;;;;;;;;;;5054392;28;20029;-61
2023/10/31 07:59:08;;;;;;;25.83;23.33;;;;;;;;;;5035875;28;20032;-63
2023/10/31 08:01:35;;;;;;;26.08;23.48;;;;;;;;;;5065493;28;20086;-62
2023/10/31 08:04:01;;;;;;;27.52;24.70;;;;;;;;;;5058198;28;20084;-63
2023/10/31 08:06:27;;;;;;;25.92;23.48;;;;;;;;;;5059372;28;20091;-62
2023/10/31 08:08:53;;;;;;;25.50;22.98;;;;;;;;;;5069860;28;20052;-60
2023/10/31 08:11:20;;;;;;;25.67;23.08;;;;;;;;;;5074861;28;20044;-59
2023/10/31 08:13:46;;;;;;;26.85;24.15;;;;;;;;;;5079532;28;20021;-63
2023/10/31 08:16:17;;;;;;;26.42;23.83;;;;;;;;;;5071902;28;20034;-61
2023/10/31 08:18:43;;;;;;;26.80;24.25;;;;;;;;;;5079708;28;20043;-63
2023/10/31 08:21:09;;;;;;;26.77;24.02;;;;;;;;;;5079102;28;20450;-63
2023/10/31 08:23:37;;;;;;;25.40;22.98;;;;;;;;;;5075104;28;20043;-63
2023/10/31 08:26:03;;;;;;;26.50;23.90;;;;;;;;;;5075491;28;20032;-57
2023/10/31 08:28:30;;;;;;;25.77;23.13;;;;;;;;;;5077428;28;20079;-62
2023/10/31 08:30:56;;;;;;;26.58;23.85;;;;;;;;;;5055952;28;20025;-55
2023/10/31 08:33:22;;;;;;;25.98;23.30;;;;;;;;;;5050976;28;20029;-55
2023/10/31 08:35:48;;;;;;;26.38;23.33;;;;;;;;;;5050971;28;20021;-52
2023/10/31 08:38:14;;;;;;;25.70;22.88;;;;;;;;;;5068738;28;20036;-53
2023/10/31 08:40:40;;;;;;;24.35;21.77;;;;;;;;;;5070391;28;20035;-52
2023/10/31 08:43:06;;;;;;;26.48;23.75;;;;;;;;;;5070839;28;20044;-53
2023/10/31 08:45:33;;;;;;;24.30;20.80;;;;;;;;;;5071523;28;20037;-56
2023/10/31 08:47:59;;;;;;;26.35;20.08;;;;;;;;;;5071244;28;20029;-53
2023/10/31 08:50:26;;;;;;;25.50;18.70;;;;;;;;;;5070158;28;20052;-53
2023/10/31 08:52:52;;;;;;;25.95;17.13;;;;;;;;;;5056438;28;20062;-49
2023/10/31 08:55:18;;;;;;;23.90;16.42;;;;;;;;;;5032619;28;20440;-51
2023/10/31 08:57:44;;;;;;;27.55;16.88;;;;;;;;;;5050846;28;20110;-48
2023/10/31 09:00:10;;;;;;;25.88;15.80;;;;;;;;;;5050470;28;20395;-51
2023/10/31 09:02:36;;;;;;;24.40;15.20;;;;;;;;;;5050321;28;20049;-54
2023/10/31 09:05:02;;;;;;;30.13;14.57;;;;;;;;;;5066480;28;20021;-54
2023/10/31 09:07:28;;;;;;;22.95;15.75;;;;;;;;;;5070673;28;20375;-54
2023/10/31 09:09:54;;;;;;;22.30;15.40;;;;;;;;;;5063481;28;20028;-52
2023/10/31 09:12:20;;;;;;;25.00;14.90;;;;;;;;;;5043961;28;20029;-50
2023/10/31 09:14:46;;;;;;;24.70;15.60;;;;;;;;;;5070300;28;20035;-53
2023/10/31 09:17:12;;;;;;;22.67;14.70;;;;;;;;;;5061291;28;20036;-53
2023/10/31 09:19:38;;;;;;;20.92;12.80;;;;;;;;;;5062972;28;20103;-52
2023/10/31 09:22:04;;;;;;;21.40;13.70;;;;;;;;;;5070548;28;20412;-53
2023/10/31 09:24:30;;;;;;;22.13;14.35;;;;;;;;;;5059532;28;20036;-49
2023/10/31 09:26:56;;;;;;;22.90;14.60;;;;;;;;;;5052909;28;20070;-53
2023/10/31 09:29:22;;;;;;;24.50;14.13;;;;;;;;;;5060692;28;20077;-51
2023/10/31 09:31:49;;;;;;;23.27;14.80;;;;;;;;;;5070149;28;20044;-52
2023/10/31 09:34:15;;;;;;;20.30;13.05;;;;;;;;;;5069660;28;20091;-49
2023/10/31 09:36:42;;;;;;;25.23;14.90;;;;;;;;;;5069859;28;20036;-53
2023/10/31 09:39:08;;;;;;;22.65;14.57;;;;;;;;;;5069609;28;20082;-54
2023/10/31 09:41:34;;;;;;;22.10;14.93;;;;;;;;;;5069542;28;20032;-55
2023/10/31 09:44:01;;;;;;;21.60;13.75;;;;;;;;;;5069728;28;20020;-54
2023/10/31 09:46:28;;;;;;;20.85;14.18;;;;;;;;;;5069629;28;20048;-53
2023/10/31 09:48:55;;;;;;;23.02;12.70;;;;;;;;;;5061167;28;20024;-55
2023/10/31 09:51:21;;;;;;;23.38;14.18;;;;;;;;;;5068928;28;20028;-53
2023/10/31 09:53:48;;;;;;;25.60;14.50;;;;;;;;;;5071497;28;20020;-53
2023/10/31 09:56:15;;;;;;;21.88;13.73;;;;;;;;;;5070646;28;20028;-51
2023/10/31 09:58:41;;;;;;;22.35;12.73;;;;;;;;;;5069541;28;20035;-54
2023/10/31 10:01:08;;;;;;;20.27;13.07;;;;;;;;;;5044399;28;20113;-54
2023/10/31 10:03:34;;;;;;;20.80;13.00;;;;;;;;;;5046880;28;20430;-52
2023/10/31 10:06:00;;;;;;;22.45;12.80;;;;;;;;;;5031504;28;20386;-55
2023/10/31 10:08:26;;;;;;;22.35;12.98;;;;;;;;;;5049365;28;20029;-55
2023/10/31 10:10:52;;;;;;;20.90;12.20;;;;;;;;;;5049209;28;20372;-52
2023/10/31 10:13:19;;;;;;;20.25;13.30;;;;;;;;;;5049600;28;20105;-54
2023/10/31 10:15:49;;;;;;;20.90;13.60;;;;;;;;;;5047453;28;20112;-57
2023/10/31 10:18:28;;;;;;;21.48;12.63;;;;;;;;;;5031237;28;20406;-56
2023/10/31 10:20:55;;;;;;;21.77;12.45;;;;;;;;;;5049018;28;20445;-56
2023/10/31 10:23:21;;;;;;;20.33;11.63;;;;;;;;;;5048770;28;20024;-53
2023/10/31 10:25:49;;;;;;;19.83;13.35;;;;;;;;;;5048786;28;20039;-55
2023/10/31 10:28:15;;;;;;;18.93;11.93;;;;;;;;;;5048792;28;20025;-55
2023/10/31 10:30:41;;;;;;;20.15;12.52;;;;;;;;;;5048667;28;20341;-56
2023/10/31 10:33:07;;;;;;;20.58;12.27;;;;;;;;;;5048719;28;20024;-55
2023/10/31 10:35:34;;;;;;;18.98;12.07;;;;;;;;;;5048136;28;20025;-56
2023/10/31 10:38:00;;;;;;;22.42;12.60;;;;;;;;;;5048432;28;20025;-55
2023/10/31 10:40:26;;;;;;;20.15;12.57;;;;;;;;;;5047998;28;20020;-56
2023/10/31 10:42:57;;;;;;;18.67;11.95;;;;;;;;;;5030689;28;20040;-53
2023/10/31 10:45:24;;;;;;;19.45;11.55;;;;;;;;;;5048853;28;20056;-54
2023/10/31 10:47:50;;;;;;;20.17;12.65;;;;;;;;;;5048714;28;20421;-55
2023/10/31 10:50:20;;;;;;;20.52;12.65;;;;;;;;;;5048291;28;20032;-55
2023/10/31 10:52:50;;;;;;;19.15;11.45;;;;;;;;;;5048672;28;20027;-57
2023/10/31 10:55:26;;;;;;;20.83;12.18;;;;;;;;;;5048593;28;20016;-54
2023/10/31 10:57:54;;;;;;;20.60;12.18;;;;;;;;;;5048736;28;20172;-52
2023/10/31 11:00:24;;;;;;;20.48;12.52;;;;;;;;;;5048490;28;20025;-56
2023/10/31 11:02:52;;;;;;;19.67;11.95;;;;;;;;;;5048323;28;20029;-56
2023/10/31 11:05:18;;;;;;;21.60;11.98;;;;;;;;;;5048683;28;20033;-55
2023/10/31 11:07:45;;;;;;;18.95;12.43;;;;;;;;;;5048346;28;20448;-56
2023/10/31 11:10:11;;;;;;;18.30;12.20;;;;;;;;;;5047995;28;20039;-52
2023/10/31 11:12:38;;;;;;;21.17;12.10;;;;;;;;;;5063800;28;20112;-52
2023/10/31 11:15:04;;;;;;;20.05;12.90;;;;;;;;;;5048451;28;20551;-54
2023/10/31 11:17:31;;;;;;;20.17;12.60;;;;;;;;;;5048252;28;20120;-54
2023/10/31 11:19:58;;;;;;;21.13;13.00;;;;;;;;;;5048401;28;20051;-54
2023/10/31 11:22:24;;;;;;;18.90;12.23;;;;;;;;;;5048021;28;20043;-55
2023/10/31 11:24:50;;;;;;;19.02;12.00;;;;;;;;;;5048160;28;20033;-56
2023/10/31 11:27:17;;;;;;;19.45;11.68;;;;;;;;;;5048429;28;20025;-54
2023/10/31 11:29:43;;;;;;;22.23;12.73;;;;;;;;;;5047866;28;20437;-56
2023/10/31 11:32:10;;;;;;;20.83;13.05;;;;;;;;;;5048186;28;20029;-57
2023/10/31 11:34:39;;;;;;;18.73;12.27;;;;;;;;;;5048449;28;20150;-56
2023/10/31 11:37:24;;;;;;;19.05;12.25;;;;;;;;;;5048476;28;20025;-52
2023/10/31 11:40:18;;;;;;;19.60;12.25;;;;;;;;;;5048047;28;20414;-53
2023/10/31 11:42:44;;;;;;;19.77;12.25;;;;;;;;;;5043777;28;20380;-54
2023/10/31 11:45:11;;;;;;;21.05;12.93;;;;;;;;;;5030175;28;20486;-54
2023/10/31 11:47:50;;;;;;;19.85;13.15;;;;;;;;;;5046264;28;20036;-54
2023/10/31 11:50:16;;;;;;;22.88;12.93;;;;;;;;;;5054475;28;20502;-58
2023/10/31 11:52:42;;;;;;;19.27;12.32;;;;;;;;;;5054597;28;20092;-56
2023/10/31 11:55:12;;;;;;;22.00;13.00;;;;;;;;;;5034418;28;20471;-55
2023/10/31 11:57:38;;;;;;;20.33;12.98;;;;;;;;;;5051720;28;20033;-58
2023/10/31 12:00:05;;;;;;;22.25;12.90;;;;;;;;;;5051712;28;20036;-54
2023/10/31 12:02:31;;;;;;;23.85;13.30;;;;;;;;;;5049904;28;20440;-58
2023/10/31 12:05:14;;;;;;;20.42;12.50;;;;;;;;;;5047475;28;20073;-56
2023/10/31 12:07:46;;;;;;;20.73;12.18;;;;;;;;;;5044253;28;20021;-55
2023/10/31 12:10:12;;;;;;;20.65;12.73;;;;;;;;;;5051280;28;20108;-58
2023/10/31 12:12:39;;;;;;;20.23;12.90;;;;;;;;;;5051334;28;20151;-56
2023/10/31 12:15:08;;;;;;;24.88;16.98;;;;;;;;;;5051546;28;20052;-54
2023/10/31 12:17:35;;;;;;;24.38;20.25;;;;;;;;;;5033264;28;20036;-57
2023/10/31 12:20:07;;;;;;;28.08;23.58;;;;;;;;;;5050982;28;20021;-55
2023/10/31 12:22:34;;;;;;;26.00;22.92;;;;;;;;;;5043167;28;20044;-54
2023/10/31 12:25:10;;;;;;;25.40;22.45;;;;;;;;;;5066543;28;20050;-57
2023/10/31 12:27:46;;;;;;;27.45;22.00;;;;;;;;;;5071050;28;20474;-54
2023/10/31 12:30:13;;;;;;;27.17;22.90;;;;;;;;;;5070567;28;20607;-52
2023/10/31 12:32:40;;;;;;;30.90;24.10;;;;;;;;;;5052842;28;20017;-57
2023/10/31 12:35:06;;;;;;;29.98;26.55;;;;;;;;;;5051102;28;20032;-55
2023/10/31 12:37:33;;;;;;;31.58;28.05;;;;;;;;;;5051293;28;20112;-56
2023/10/31 12:40:03;;;;;;;32.95;29.55;;;;;;;;;;5051260;28;20040;-54
2023/10/31 12:42:31;;;;;;;34.63;31.02;;;;;;;;;;5047089;28;20067;-51
2023/10/31 12:44:57;;;;;;;37.38;33.63;;;;;;;;;;5057273;28;20024;-56
2023/10/31 12:47:23;;;;;;;37.22;32.95;;;;;;;;;;5070523;28;20029;-55
2023/10/31 12:50:05;;;;;;;35.63;32.10;;;;;;;;;;5064461;28;20041;-55
2023/10/31 12:52:45;;;;;;;36.67;32.90;;;;;;;;;;5070471;28;20025;-54
2023/10/31 12:55:18;;;;;;;36.60;32.63;;;;;;;;;;5069883;28;20025;-52
2023/10/31 12:57:46;;;;;;;40.50;35.38;;;;;;;;;;5050369;28;20024;-53
2023/10/31 13:00:12;;;;;;;40.83;36.10;;;;;;;;;;5050260;28;20075;-56
2023/10/31 13:02:39;;;;;;;40.63;36.45;;;;;;;;;;5050620;28;20052;-53
2023/10/31 13:05:13;;;;;;;39.75;35.35;;;;;;;;;;5066830;28;20079;-55
2023/10/31 13:07:39;;;;;;;39.83;35.72;;;;;;;;;;5062397;28;20059;-52
2023/10/31 13:10:06;;;;;;;40.20;35.95;;;;;;;;;;5052619;28;20051;-54
2023/10/31 13:12:33;;;;;;;39.83;35.72;;;;;;;;;;5032851;28;20017;-56
2023/10/31 13:14:59;;;;;;;35.40;31.75;;;;;;;;;;5046066;28;20040;-50
2023/10/31 13:17:25;;;;;;;37.58;31.65;;;;;;;;;;5050088;28;20029;-56
2023/10/31 13:19:51;;;;;;;34.15;30.45;;;;;;;;;;5046613;28;20039;-52
2023/10/31 13:22:17;;;;;;;35.97;32.38;;;;;;;;;;5051275;28;20418;-55
2023/10/31 13:24:43;;;;;;;36.67;32.17;;;;;;;;;;5069849;28;20033;-56
2023/10/31 13:27:15;;;;;;;34.17;30.88;;;;;;;;;;5069715;28;20020;-55
2023/10/31 13:29:41;;;;;;;33.55;29.98;;;;;;;;;;5069481;28;20020;-55
2023/10/31 13:32:08;;;;;;;31.98;28.67;;;;;;;;;;5051814;28;20028;-53
2023/10/31 13:34:34;;;;;;;32.80;29.00;;;;;;;;;;5071606;28;20047;-54
2023/10/31 13:37:02;;;;;;;30.77;27.63;;;;;;;;;;5066462;28;20025;-58
2023/10/31 13:39:28;;;;;;;30.30;26.08;;;;;;;;;;5050640;28;20028;-55
2023/10/31 13:41:54;;;;;;;29.38;26.05;;;;;;;;;;5049644;28;20033;-56
2023/10/31 13:44:20;;;;;;;28.02;25.33;;;;;;;;;;5049855;28;20025;-55
2023/10/31 13:46:46;;;;;;;29.65;26.52;;;;;;;;;;5049341;28;20032;-57
2023/10/31 13:49:14;;;;;;;28.05;25.25;;;;;;;;;;5057997;28;20028;-54
2023/10/31 13:51:40;;;;;;;29.15;26.25;;;;;;;;;;5069193;28;20051;-53
2023/10/31 13:54:06;;;;;;;28.55;25.75;;;;;;;;;;5069459;28;20028;-55
2023/10/31 13:56:33;;;;;;;26.90;24.40;;;;;;;;;;5069407;28;20028;-55
2023/10/31 13:58:59;;;;;;;26.80;24.00;;;;;;;;;;5069614;28;20066;-53
2023/10/31 14:01:25;;;;;;;26.02;23.52;;;;;;;;;;5037720;28;20020;-50
2023/10/31 14:03:51;;;;;;;26.63;23.92;;;;;;;;;;5050149;28;20075;-55
2023/10/31 14:06:17;;;;;;;26.50;23.13;;;;;;;;;;5049590;28;20124;-57
2023/10/31 14:08:43;;;;;;;23.70;19.48;;;;;;;;;;4690061;28;10000284;-55
2023/10/31 14:11:09;;;;;;;43.13;19.08;;;;;;;;;;5055094;28;20035;-57
2023/10/31 14:13:38;;;;;;;23.17;19.25;;;;;;;;;;5055176;28;20503;-57
2023/10/31 14:16:05;;;;;;;19.92;17.73;;;;;;;;;;5046496;28;20035;-52